Time;durP1;ratioP1;P1;durP2;ratioP2;P2;SDS_P1;SDS_P2;PMS_P1;PMS_P2;Temp;Humidity;BMP_temperature;BMP_pressure;BME280_temperature;BME280_humidity;BME280_pressure;Samples;Min_cycle;Max_cycle;Signal;HPM_P1;HPM_P2
2021/12/21 00:02:02;;;;;;;27.77;18.13;;;-0.50;99.90;;;;;;2610033;54;20418;-72
2021/12/21 00:04:27;;;;;;;28.23;18.93;;;-0.30;99.90;;;;;;2612087;39;20568;-75
2021/12/21 00:06:53;;;;;;;29.40;19.83;;;-0.40;99.90;;;;;;2615440;54;20474;-73
2021/12/21 00:09:19;;;;;;;31.10;20.80;;;-0.40;99.90;;;;;;2615368;54;20158;-73
2021/12/21 00:11:45;;;;;;;27.40;20.30;;;-0.30;99.90;;;;;;2614081;54;20274;-72
2021/12/21 00:14:18;;;;;;;29.60;19.93;;;-0.20;99.90;;;;;;2615450;51;20169;-72
2021/12/21 00:19:27;;;;;;;30.40;21.53;;;-0.50;99.90;;;;;;2612561;54;20426;-73
2021/12/21 00:22:00;;;;;;;34.40;19.63;;;-0.50;99.90;;;;;;2613918;39;20635;-73
2021/12/21 00:24:34;;;;;;;33.43;21.07;;;-0.60;99.90;;;;;;2613442;54;20461;-73
2021/12/21 00:27:00;;;;;;;27.03;19.57;;;-0.50;99.90;;;;;;2614502;54;20490;-74
2021/12/21 00:29:26;;;;;;;29.80;18.33;;;-0.30;99.90;;;;;;2614554;54;20441;-74
2021/12/21 00:31:52;;;;;;;37.27;22.80;;;-0.60;99.90;;;;;;2614573;47;20405;-76
2021/12/21 00:34:18;;;;;;;29.53;19.20;;;-0.40;99.90;;;;;;2612313;54;20708;-74
2021/12/21 00:36:46;;;;;;;30.77;20.10;;;-0.30;99.90;;;;;;2613835;54;20158;-75
2021/12/21 00:39:15;;;;;;;27.33;20.50;;;-0.50;99.90;;;;;;2616246;31;20609;-73
2021/12/21 00:41:41;;;;;;;24.33;19.30;;;-0.50;99.90;;;;;;2614065;54;20401;-74
2021/12/21 00:44:06;;;;;;;28.03;19.73;;;-0.40;99.90;;;;;;2614414;54;20512;-74
2021/12/21 00:46:32;;;;;;;26.80;18.30;;;-0.30;99.90;;;;;;2614227;47;20405;-73
2021/12/21 00:49:11;;;;;;;25.00;18.70;;;-0.50;99.90;;;;;;2614156;54;20134;-73
2021/12/21 00:51:37;;;;;;;38.53;21.57;;;-0.50;99.90;;;;;;2614390;54;20405;-73
2021/12/21 00:54:03;;;;;;;25.40;19.83;;;-0.70;99.90;;;;;;2613127;39;20785;-72
2021/12/21 00:56:30;;;;;;;36.93;22.50;;;-0.60;99.90;;;;;;2614342;54;20142;-75
2021/12/21 00:58:55;;;;;;;34.97;21.80;;;-0.50;99.90;;;;;;2613729;54;20149;-74
2021/12/21 01:01:21;;;;;;;30.00;21.03;;;-0.70;99.90;;;;;;2614170;47;20533;-73
2021/12/21 01:03:51;;;;;;;28.97;20.80;;;-0.70;99.90;;;;;;2613307;47;20273;-74
2021/12/21 01:09:03;;;;;;;29.93;18.10;;;-1.10;99.90;;;;;;2612603;54;20434;-72
2021/12/21 01:11:36;;;;;;;22.27;16.83;;;-1.20;99.90;;;;;;2614474;54;20169;-74
2021/12/21 01:16:44;;;;;;;28.77;17.73;;;-1.10;99.90;;;;;;2614942;54;20451;-72
2021/12/21 01:21:43;;;;;;;26.87;17.80;;;-0.80;99.90;;;;;;2615237;54;20401;-75
2021/12/21 01:31:53;;;;;;;24.80;16.67;;;-0.60;99.90;;;;;;2614782;54;20403;-73
2021/12/21 01:37:04;;;;;;;27.03;18.93;;;-0.60;99.90;;;;;;2612370;54;20971;-73
2021/12/21 01:42:38;;;;;;;28.57;17.20;;;-0.90;99.90;;;;;;2614204;54;20437;-73
2021/12/21 01:50:34;;;;;;;30.37;16.60;;;-1.20;99.90;;;;;;2614839;54;20452;-73
2021/12/21 01:53:00;;;;;;;25.10;16.63;;;-1.20;99.90;;;;;;2613713;54;20390;-74
2021/12/21 01:55:26;;;;;;;28.60;18.73;;;-0.90;99.90;;;;;;2616011;39;20963;-73
2021/12/21 01:57:51;;;;;;;28.63;19.40;;;-0.80;99.90;;;;;;2616232;39;20829;-74
2021/12/21 02:00:17;;;;;;;28.07;17.27;;;-0.80;99.90;;;;;;2614849;54;20260;-76
2021/12/21 02:02:43;;;;;;;20.00;15.57;;;-0.80;99.90;;;;;;2614663;54;20154;-80
2021/12/21 02:05:09;;;;;;;23.90;18.50;;;-0.90;99.90;;;;;;2614358;54;20501;-81
2021/12/21 02:07:35;;;;;;;25.27;17.40;;;-1.00;99.90;;;;;;2613055;54;20230;-80
2021/12/21 02:10:01;;;;;;;24.63;16.73;;;-1.10;99.90;;;;;;2610004;54;20571;-83
2021/12/21 02:12:27;;;;;;;32.87;16.40;;;-1.30;99.90;;;;;;2612797;47;20443;-80
2021/12/21 02:14:56;;;;;;;28.37;17.03;;;-1.30;99.90;;;;;;2614482;54;20170;-80
2021/12/21 02:17:54;;;;;;;30.07;17.10;;;-1.30;99.90;;;;;;2614310;47;20176;-80
2021/12/21 02:20:37;;;;;;;27.40;16.47;;;-1.30;99.90;;;;;;2612915;51;20413;-82
2021/12/21 02:23:14;;;;;;;31.43;16.70;;;-1.60;99.90;;;;;;2614765;54;20478;-80
2021/12/21 02:26:04;;;;;;;22.40;16.00;;;-1.50;99.90;;;;;;2615834;54;20498;-79
2021/12/21 02:30:54;;;;;;;27.43;16.67;;;-1.30;99.90;;;;;;2614742;54;20423;-81
2021/12/21 02:33:23;;;;;;;24.93;16.10;;;-1.40;99.90;;;;;;2613810;54;20438;-78
2021/12/21 02:35:49;;;;;;;22.00;14.70;;;-1.40;99.90;;;;;;2615157;54;20399;-81
2021/12/21 02:38:16;;;;;;;25.83;16.57;;;-1.40;99.90;;;;;;2614952;54;20402;-81
2021/12/21 02:40:41;;;;;;;30.40;18.23;;;-1.60;99.90;;;;;;2613599;39;20783;-81
2021/12/21 02:43:10;;;;;;;25.43;16.40;;;-1.40;99.90;;;;;;2614123;54;20545;-80
2021/12/21 02:45:38;;;;;;;23.77;14.87;;;-1.50;99.90;;;;;;2614262;39;20511;-79
2021/12/21 02:48:04;;;;;;;22.60;17.07;;;-1.50;99.90;;;;;;2615171;39;20799;-80
2021/12/21 02:50:31;;;;;;;24.00;16.40;;;-1.60;99.90;;;;;;2613634;54;20438;-78
2021/12/21 02:52:59;;;;;;;31.57;17.27;;;-1.40;99.90;;;;;;2614299;54;20390;-82
2021/12/21 02:55:26;;;;;;;20.17;14.37;;;-1.30;99.90;;;;;;2615516;54;20440;-79
2021/12/21 02:57:52;;;;;;;21.47;15.20;;;-1.50;99.90;;;;;;2613942;54;20430;-81
2021/12/21 03:00:18;;;;;;;21.73;14.83;;;-1.30;99.90;;;;;;2612932;54;20421;-79
2021/12/21 03:02:44;;;;;;;24.43;15.30;;;-1.20;99.90;;;;;;2614275;54;20419;-82
2021/12/21 03:05:10;;;;;;;19.17;13.37;;;-1.20;99.90;;;;;;2615841;39;20818;-80
2021/12/21 03:10:09;;;;;;;21.53;15.80;;;-1.50;99.90;;;;;;2613574;54;20422;-81
2021/12/21 03:15:23;;;;;;;22.90;17.60;;;-1.60;99.90;;;;;;2610179;39;20836;-78
2021/12/21 03:17:51;;;;;;;23.73;14.00;;;-1.60;99.90;;;;;;2610805;54;20983;-78
2021/12/21 03:20:17;;;;;;;23.60;15.00;;;-1.60;99.90;;;;;;2612436;54;20408;-80
2021/12/21 03:22:44;;;;;;;23.37;16.00;;;-1.60;99.90;;;;;;2610698;47;20389;-81
2021/12/21 03:25:10;;;;;;;25.90;15.63;;;-1.50;99.90;;;;;;2614488;47;20449;-77
2021/12/21 03:27:36;;;;;;;27.43;14.73;;;-1.40;99.90;;;;;;2613919;54;20990;-80
2021/12/21 03:30:04;;;;;;;30.70;16.77;;;-1.70;99.90;;;;;;2613638;54;20391;-80
2021/12/21 03:32:30;;;;;;;26.37;16.13;;;-1.90;99.90;;;;;;2612968;54;20448;-79
2021/12/21 03:34:56;;;;;;;28.47;14.43;;;-1.90;99.90;;;;;;2616112;54;20379;-79
2021/12/21 03:37:22;;;;;;;24.87;16.17;;;-1.80;99.90;;;;;;2614613;54;20561;-80
2021/12/21 03:39:50;;;;;;;21.87;14.20;;;-1.70;99.90;;;;;;2614882;54;20134;-81
2021/12/21 03:42:16;;;;;;;20.53;15.67;;;-1.50;99.90;;;;;;2614733;54;20197;-79
2021/12/21 03:44:42;;;;;;;26.37;14.73;;;-1.50;99.90;;;;;;2615548;54;20930;-80
2021/12/21 03:47:10;;;;;;;29.10;16.10;;;-1.50;99.90;;;;;;2615123;54;20894;-80
2021/12/21 03:52:14;;;;;;;28.97;16.40;;;-1.90;99.90;;;;;;2615314;54;20405;-80
2021/12/21 03:54:41;;;;;;;21.33;16.67;;;-1.90;99.90;;;;;;2615830;54;20382;-82
2021/12/21 03:57:08;;;;;;;20.80;15.20;;;-1.80;99.90;;;;;;2614667;54;20405;-80
2021/12/21 03:59:34;;;;;;;16.00;14.27;;;-1.90;99.90;;;;;;2614869;54;20412;-81
2021/12/21 04:02:00;;;;;;;30.00;16.60;;;-1.90;99.90;;;;;;2614875;54;20370;-81
2021/12/21 04:04:27;;;;;;;27.03;14.77;;;-1.80;99.90;;;;;;2615791;54;20393;-79
2021/12/21 04:06:54;;;;;;;25.00;16.60;;;-1.90;99.90;;;;;;2615519;54;20937;-80
2021/12/21 04:09:19;;;;;;;23.77;16.80;;;-2.10;99.90;;;;;;2614826;54;20382;-81
2021/12/21 04:11:46;;;;;;;21.60;16.33;;;-2.20;99.90;;;;;;2615841;54;20402;-82
2021/12/21 04:14:12;;;;;;;18.00;14.23;;;-2.30;99.90;;;;;;2614043;54;20145;-81
2021/12/21 04:16:38;;;;;;;17.53;14.03;;;-2.30;99.90;;;;;;2615235;54;20413;-80
2021/12/21 04:19:04;;;;;;;21.80;15.30;;;-2.30;99.90;;;;;;2614406;54;20423;-80
2021/12/21 04:21:30;;;;;;;23.70;14.63;;;-2.40;99.90;;;;;;2614679;54;20403;-81
2021/12/21 04:23:56;;;;;;;16.57;13.50;;;-2.50;99.90;;;;;;2615007;47;20452;-77
2021/12/21 04:26:21;;;;;;;21.73;14.43;;;-2.50;99.90;;;;;;2615132;39;20788;-80
2021/12/21 04:28:48;;;;;;;19.43;14.70;;;-2.50;99.90;;;;;;2615344;39;20618;-79
2021/12/21 04:31:14;;;;;;;16.13;13.23;;;-2.30;99.90;;;;;;2613517;54;20411;-81
2021/12/21 04:33:44;;;;;;;20.13;15.37;;;-2.30;99.90;;;;;;2614841;39;20810;-78
2021/12/21 04:36:11;;;;;;;20.83;14.70;;;-2.10;99.90;;;;;;2615502;54;20447;-77
2021/12/21 04:38:41;;;;;;;26.50;15.20;;;-2.30;99.90;;;;;;2614745;54;20496;-79
2021/12/21 04:41:16;;;;;;;26.10;14.47;;;-2.40;99.90;;;;;;2614610;54;20382;-80
2021/12/21 04:43:43;;;;;;;21.27;14.23;;;-2.50;99.90;;;;;;2614919;54;20429;-79
2021/12/21 04:46:10;;;;;;;23.00;15.77;;;-2.50;99.90;;;;;;2614729;54;20424;-80
2021/12/21 04:48:36;;;;;;;23.73;14.90;;;-2.50;99.90;;;;;;2613813;54;20399;-80
2021/12/21 04:51:04;;;;;;;28.20;16.30;;;-2.50;99.90;;;;;;2614736;54;20399;-79
2021/12/21 04:53:29;;;;;;;24.70;14.63;;;-2.50;99.90;;;;;;2614403;54;20429;-79
2021/12/21 04:55:55;;;;;;;23.27;14.33;;;-2.60;99.90;;;;;;2614986;54;20981;-78
2021/12/21 04:58:22;;;;;;;24.97;15.63;;;-2.50;99.90;;;;;;2614242;54;20138;-80
2021/12/21 05:00:49;;;;;;;23.00;14.00;;;-2.40;99.90;;;;;;2614373;54;20381;-79
2021/12/21 05:03:15;;;;;;;25.93;14.03;;;-2.40;99.90;;;;;;2614493;47;20409;-81
2021/12/21 05:05:41;;;;;;;24.57;15.07;;;-2.30;99.90;;;;;;2614963;54;20353;-79
2021/12/21 05:08:09;;;;;;;21.30;14.50;;;-2.20;99.90;;;;;;2615764;39;20788;-79
2021/12/21 05:10:52;;;;;;;19.03;14.80;;;-2.30;99.90;;;;;;2614743;54;20377;-79
2021/12/21 05:13:21;;;;;;;16.07;12.20;;;-2.50;99.90;;;;;;2615266;54;20394;-80
2021/12/21 05:15:47;;;;;;;19.00;13.20;;;-2.50;99.90;;;;;;2615144;54;20547;-80
2021/12/21 05:18:14;;;;;;;18.80;14.20;;;-2.60;99.90;;;;;;2614357;47;20488;-80
2021/12/21 05:20:41;;;;;;;26.30;17.17;;;-2.40;99.90;;;;;;2614775;54;20454;-79
2021/12/21 05:23:09;;;;;;;25.20;15.73;;;-2.50;99.90;;;;;;2614018;54;20411;-80
2021/12/21 05:25:35;;;;;;;19.13;15.47;;;-2.50;99.90;;;;;;2615735;39;20509;-80
2021/12/21 05:28:01;;;;;;;27.87;14.53;;;-2.40;99.90;;;;;;2615059;54;20440;-80
2021/12/21 05:30:27;;;;;;;32.90;13.77;;;-2.30;99.90;;;;;;2615420;47;20543;-81
2021/12/21 05:32:55;;;;;;;26.70;14.77;;;-2.30;99.90;;;;;;2616032;54;20410;-80
2021/12/21 05:35:22;;;;;;;24.47;15.30;;;-2.20;99.90;;;;;;2614512;54;20414;-79
2021/12/21 05:37:51;;;;;;;25.10;16.00;;;-2.30;99.90;;;;;;2614805;46;20411;-79
2021/12/21 05:40:18;;;;;;;19.80;14.40;;;-2.30;99.90;;;;;;2615164;54;20922;-80
2021/12/21 05:42:46;;;;;;;23.70;15.90;;;-2.10;99.90;;;;;;2613618;54;20489;-80
2021/12/21 05:45:14;;;;;;;20.10;13.80;;;-2.10;99.90;;;;;;2616163;39;20843;-80
2021/12/21 05:47:40;;;;;;;36.93;16.30;;;-2.40;99.90;;;;;;2615791;54;21024;-79
2021/12/21 05:50:10;;;;;;;19.07;14.50;;;-2.30;99.90;;;;;;2615394;54;20406;-80
2021/12/21 05:52:36;;;;;;;21.53;15.03;;;-2.30;99.90;;;;;;2613172;54;20401;-80
2021/12/21 05:55:04;;;;;;;30.23;17.83;;;-2.40;99.90;;;;;;2615758;54;20677;-81
2021/12/21 05:57:31;;;;;;;21.43;15.03;;;-2.20;99.90;;;;;;2615449;54;20418;-77
2021/12/21 05:59:57;;;;;;;26.23;14.37;;;-2.30;99.90;;;;;;2615236;47;20413;-81
2021/12/21 06:02:23;;;;;;;24.10;17.70;;;-2.20;99.90;;;;;;2615045;54;20410;-79
2021/12/21 06:04:49;;;;;;;22.23;15.37;;;-2.30;99.90;;;;;;2615603;54;21057;-81
2021/12/21 06:07:15;;;;;;;22.93;16.17;;;-2.30;99.90;;;;;;2614859;54;20468;-80
2021/12/21 06:09:44;;;;;;;27.80;16.43;;;-2.10;99.90;;;;;;2615152;54;20978;-79
2021/12/21 06:12:35;;;;;;;32.23;16.60;;;-2.10;99.90;;;;;;2614956;54;20425;-80
2021/12/21 06:28:02;;;;;;;23.07;16.70;;;-2.50;99.90;;;;;;2615219;54;20406;-77
2021/12/21 06:30:28;;;;;;;29.77;18.87;;;-2.40;99.90;;;;;;2615668;54;21025;-79
2021/12/21 06:32:54;;;;;;;34.83;20.85;;;-2.40;99.90;;;;;;2614824;54;20402;-78
2021/12/21 06:35:20;;;;;;;30.00;19.20;;;-2.40;99.90;;;;;;2615229;54;20270;-78
2021/12/21 06:37:46;;;;;;;30.93;17.20;;;-2.30;99.90;;;;;;2613671;47;20486;-76
2021/12/21 06:40:12;;;;;;;30.17;17.10;;;-2.30;99.90;;;;;;2614744;54;20494;-81
2021/12/21 06:42:40;;;;;;;26.07;16.30;;;-2.20;99.90;;;;;;2614982;39;20780;-80
2021/12/21 06:45:14;;;;;;;30.93;16.83;;;-2.20;99.90;;;;;;2615877;39;20813;-78
2021/12/21 06:53:09;;;;;;;28.00;15.70;;;-2.30;99.90;;;;;;2613448;39;20773;-78
2021/12/21 06:55:36;;;;;;;31.20;18.27;;;-2.20;99.90;;;;;;2611970;54;20418;-80
2021/12/21 06:58:02;;;;;;;25.67;15.93;;;-2.10;99.90;;;;;;2613410;54;20142;-81
2021/12/21 07:00:28;;;;;;;25.27;16.37;;;-2.00;99.90;;;;;;2614209;54;21352;-81
2021/12/21 07:02:54;;;;;;;29.00;18.67;;;-1.80;99.90;;;;;;2613751;47;20420;-81
2021/12/21 07:05:21;;;;;;;33.90;17.07;;;-1.70;99.90;;;;;;2610231;54;20407;-80
2021/12/21 07:07:49;;;;;;;31.83;15.80;;;-1.70;99.90;;;;;;2614021;54;20419;-82
2021/12/21 07:10:22;;;;;;;29.87;18.90;;;-1.90;99.90;;;;;;2613350;51;20830;-81
2021/12/21 07:18:14;;;;;;;31.53;16.70;;;-2.00;99.90;;;;;;2614538;54;20999;-82
2021/12/21 07:20:40;;;;;;;21.13;14.97;;;-2.20;99.90;;;;;;2613644;47;20416;-81
2021/12/21 07:23:06;;;;;;;28.50;15.33;;;-2.40;99.90;;;;;;2614234;54;20416;-80
2021/12/21 07:25:32;;;;;;;23.20;15.00;;;-2.30;99.90;;;;;;2614726;39;20844;-79
2021/12/21 07:27:58;;;;;;;23.30;16.07;;;-2.40;99.90;;;;;;2615342;54;20423;-79
2021/12/21 07:30:24;;;;;;;30.40;16.17;;;-2.40;99.90;;;;;;2615813;54;20947;-78
2021/12/21 07:32:50;;;;;;;24.00;16.17;;;-2.20;99.90;;;;;;2613634;47;20504;-80
2021/12/21 07:35:16;;;;;;;35.07;15.13;;;-2.20;99.90;;;;;;2612524;54;20406;-81
2021/12/21 07:37:42;;;;;;;25.60;15.67;;;-2.10;99.90;;;;;;2609149;39;20576;-79
2021/12/21 07:40:10;;;;;;;32.47;17.70;;;-2.00;99.90;;;;;;2607285;47;20513;-79
2021/12/21 07:42:36;;;;;;;22.20;15.87;;;-2.00;99.90;;;;;;2611114;39;20817;-80
2021/12/21 07:45:03;;;;;;;26.40;15.67;;;-2.10;99.90;;;;;;2612350;54;20397;-79
2021/12/21 07:47:28;;;;;;;28.63;16.77;;;-2.10;99.90;;;;;;2613001;54;20502;-81
2021/12/21 07:49:54;;;;;;;30.17;16.07;;;-2.10;99.90;;;;;;2613109;54;20398;-79
2021/12/21 07:52:20;;;;;;;29.90;15.80;;;-1.80;99.90;;;;;;2612885;54;20246;-81
2021/12/21 07:54:46;;;;;;;27.67;16.30;;;-1.70;99.90;;;;;;2613774;54;20412;-78
2021/12/21 07:57:12;;;;;;;31.17;15.87;;;-1.70;99.90;;;;;;2614560;54;20450;-79
2021/12/21 07:59:39;;;;;;;27.87;16.37;;;-1.70;99.90;;;;;;2613973;54;20156;-79
2021/12/21 08:02:05;;;;;;;26.80;15.93;;;-1.70;99.90;;;;;;2613576;54;20154;-81
2021/12/21 08:04:33;;;;;;;31.67;18.40;;;-2.00;99.90;;;;;;2614563;47;20993;-79
2021/12/21 08:07:07;;;;;;;32.70;21.20;;;-1.90;99.90;;;;;;2614706;54;20418;-80
2021/12/21 08:09:38;;;;;;;27.87;18.80;;;-2.00;99.90;;;;;;2615232;54;20434;-82
2021/12/21 08:12:16;;;;;;;30.43;18.23;;;-1.90;99.90;;;;;;2611008;54;20402;-76
2021/12/21 08:14:48;;;;;;;32.33;19.07;;;-1.90;99.90;;;;;;2614617;54;20380;-81
2021/12/21 08:17:15;;;;;;;26.03;17.30;;;-1.90;99.90;;;;;;2614652;54;20880;-76
2021/12/21 08:19:41;;;;;;;33.40;19.60;;;-2.00;99.90;;;;;;2612589;54;20402;-79
2021/12/21 08:22:08;;;;;;;30.53;17.60;;;-2.00;99.90;;;;;;2610821;54;20399;-81
2021/12/21 08:24:34;;;;;;;24.43;16.90;;;-2.10;99.90;;;;;;2613573;54;20403;-79
2021/12/21 08:27:04;;;;;;;28.23;17.20;;;-1.80;99.90;;;;;;2613361;54;20418;-78
2021/12/21 08:29:31;;;;;;;29.73;18.50;;;-1.70;99.90;;;;;;2613636;54;20161;-80
2021/12/21 08:31:57;;;;;;;26.80;17.67;;;-1.30;99.90;;;;;;2614453;54;20493;-82
2021/12/21 08:34:23;;;;;;;34.90;19.47;;;-1.30;99.90;;;;;;2614077;54;20417;-79
2021/12/21 08:36:49;;;;;;;28.67;18.40;;;-1.20;99.90;;;;;;2611664;54;20394;-80
2021/12/21 08:39:17;;;;;;;32.20;18.90;;;-1.20;99.90;;;;;;2614537;39;20837;-79
2021/12/21 08:41:44;;;;;;;31.27;20.20;;;-1.00;99.90;;;;;;2614831;54;20971;-80
2021/12/21 08:44:11;;;;;;;38.90;20.17;;;-1.20;99.90;;;;;;2614262;39;20848;-80
2021/12/21 08:46:39;;;;;;;42.37;21.00;;;-1.40;99.90;;;;;;2614466;39;20837;-80
2021/12/21 08:49:05;;;;;;;32.20;20.47;;;-1.20;99.90;;;;;;2611594;54;20410;-77
2021/12/21 08:51:31;;;;;;;32.67;19.73;;;-0.40;99.90;;;;;;2613421;54;20499;-80
2021/12/21 08:53:57;;;;;;;33.27;21.53;;;0.00;99.90;;;;;;2612702;54;20506;-80
2021/12/21 08:56:24;;;;;;;31.57;21.00;;;0.20;99.90;;;;;;2610209;54;20413;-80
2021/12/21 08:58:50;;;;;;;36.50;21.00;;;0.40;99.90;;;;;;2614681;54;20982;-80
2021/12/21 09:01:17;;;;;;;35.20;21.07;;;0.90;99.90;;;;;;2613823;54;20943;-81
2021/12/21 09:03:45;;;;;;;40.90;21.57;;;1.20;99.90;;;;;;2613879;47;20949;-79
2021/12/21 09:06:11;;;;;;;38.37;21.33;;;1.10;99.90;;;;;;2615750;54;20426;-80
2021/12/21 09:08:37;;;;;;;31.80;20.70;;;0.90;99.90;;;;;;2615195;54;20423;-77
2021/12/21 09:11:03;;;;;;;33.80;20.70;;;0.80;99.90;;;;;;2614961;54;20742;-80
2021/12/21 09:13:30;;;;;;;37.60;21.07;;;1.00;99.90;;;;;;2614878;54;20706;-80
2021/12/21 09:15:56;;;;;;;34.90;20.97;;;1.20;99.90;;;;;;2614018;54;20525;-79
2021/12/21 09:18:22;;;;;;;37.17;21.67;;;1.20;99.90;;;;;;2613647;54;20419;-80
2021/12/21 09:20:48;;;;;;;26.40;18.80;;;1.10;99.90;;;;;;2612961;54;20414;-80
2021/12/21 09:23:14;;;;;;;28.53;20.87;;;1.30;99.90;;;;;;2613906;54;20450;-79
2021/12/21 09:25:40;;;;;;;30.33;19.80;;;1.70;99.90;;;;;;2612481;39;20815;-78
2021/12/21 09:28:06;;;;;;;30.30;19.47;;;1.50;99.90;;;;;;2613415;47;20449;-79
2021/12/21 09:30:32;;;;;;;27.63;20.13;;;1.30;99.90;;;;;;2612480;54;20535;-80
2021/12/21 09:32:59;;;;;;;29.13;22.00;;;1.50;99.90;;;;;;2614712;54;20266;-81
2021/12/21 09:35:25;;;;;;;28.00;20.17;;;2.10;99.90;;;;;;2613424;54;20428;-80
2021/12/21 09:37:52;;;;;;;34.97;22.30;;;2.70;99.90;;;;;;2615403;54;20480;-80
2021/12/21 09:40:21;;;;;;;30.90;21.07;;;3.50;99.90;;;;;;2612594;39;20831;-80
2021/12/21 09:42:47;;;;;;;25.67;19.30;;;4.30;99.90;;;;;;2613212;54;20408;-80
2021/12/21 09:45:14;;;;;;;26.60;19.37;;;4.90;99.90;;;;;;2612374;54;20451;-78
2021/12/21 09:47:39;;;;;;;26.00;18.07;;;5.00;99.90;;;;;;2611248;54;20974;-81
2021/12/21 09:50:08;;;;;;;27.03;20.37;;;5.50;99.90;;;;;;2610749;47;20510;-79
2021/12/21 09:52:35;;;;;;;24.30;18.97;;;6.10;99.90;;;;;;2610703;54;20958;-81
2021/12/21 09:55:06;;;;;;;28.30;21.00;;;6.40;99.90;;;;;;2612727;54;20415;-81
2021/12/21 09:57:32;;;;;;;32.27;20.27;;;7.00;99.90;;;;;;2615528;54;21016;-80
2021/12/21 09:59:58;;;;;;;31.10;19.97;;;7.10;99.40;;;;;;2612022;54;20410;-82
2021/12/21 10:02:26;;;;;;;28.07;19.60;;;7.20;96.30;;;;;;2614044;54;20419;-80
2021/12/21 10:04:59;;;;;;;26.13;19.97;;;7.10;90.90;;;;;;2614703;54;20135;-80
2021/12/21 10:07:25;;;;;;;27.40;17.77;;;7.40;93.40;;;;;;2616155;39;20484;-81
2021/12/21 10:10:15;;;;;;;27.10;19.50;;;7.60;93.10;;;;;;2611604;47;20419;-81
2021/12/21 10:12:43;;;;;;;25.33;17.30;;;7.50;85.80;;;;;;2614490;47;20450;-79
2021/12/21 10:15:17;;;;;;;33.10;18.90;;;8.70;80.90;;;;;;2614922;54;20447;-81
2021/12/21 10:17:59;;;;;;;24.80;17.80;;;9.00;75.40;;;;;;2614268;54;20398;-79
2021/12/21 10:20:43;;;;;;;22.47;18.53;;;9.50;63.80;;;;;;2612539;47;20539;-78
2021/12/21 10:23:25;;;;;;;30.70;19.90;;;9.60;63.00;;;;;;2611981;54;20418;-79
2021/12/21 10:26:01;;;;;;;28.73;19.33;;;10.20;57.50;;;;;;2613212;54;20403;-76
2021/12/21 10:28:34;;;;;;;38.30;18.73;;;10.00;56.70;;;;;;2610759;47;20447;-77
2021/12/21 10:31:08;;;;;;;25.93;18.53;;;10.60;54.20;;;;;;2611957;54;20426;-80
2021/12/21 10:33:35;;;;;;;25.07;17.73;;;10.90;55.30;;;;;;2612129;31;20844;-79
2021/12/21 10:36:06;;;;;;;27.50;17.80;;;11.20;54.30;;;;;;2611382;54;20410;-76
2021/12/21 10:38:35;;;;;;;28.10;16.87;;;11.40;54.60;;;;;;2613354;46;20415;-79
2021/12/21 10:41:31;;;;;;;26.13;18.67;;;11.00;51.40;;;;;;2613980;47;20414;-80
2021/12/21 10:44:09;;;;;;;20.63;16.57;;;10.90;53.30;;;;;;2614269;54;21094;-78
2021/12/21 10:46:44;;;;;;;28.77;18.50;;;11.80;49.60;;;;;;2615781;46;20969;-79
2021/12/21 10:49:13;;;;;;;25.30;17.80;;;12.10;48.20;;;;;;2610387;47;20443;-78
2021/12/21 10:52:01;;;;;;;18.97;15.33;;;12.50;48.70;;;;;;2613927;47;20406;-78
2021/12/21 10:54:29;;;;;;;21.83;15.83;;;12.50;46.90;;;;;;2615702;54;20971;-79
2021/12/21 10:57:08;;;;;;;20.53;16.13;;;13.30;46.70;;;;;;2614790;54;20975;-79
2021/12/21 10:59:39;;;;;;;27.23;17.50;;;13.60;44.00;;;;;;2614088;54;20415;-77
2021/12/21 11:02:07;;;;;;;21.07;15.57;;;12.90;45.40;;;;;;2614139;54;20998;-79
2021/12/21 11:04:40;;;;;;;23.80;16.90;;;13.00;45.90;;;;;;2612273;54;20426;-78
2021/12/21 11:08:00;;;;;;;22.63;17.07;;;12.50;46.00;;;;;;2609947;54;20441;-79
2021/12/21 11:10:30;;;;;;;32.13;19.53;;;13.20;44.60;;;;;;2611577;39;20857;-77
2021/12/21 11:13:07;;;;;;;26.10;18.43;;;13.10;45.70;;;;;;2612903;54;20422;-78
2021/12/21 11:15:52;;;;;;;31.27;16.90;;;13.40;44.40;;;;;;2615669;54;20462;-79
2021/12/21 11:18:20;;;;;;;28.30;18.50;;;13.70;45.00;;;;;;2614426;54;20407;-78
2021/12/21 11:20:49;;;;;;;29.07;17.30;;;13.60;44.50;;;;;;2614677;54;20410;-78
2021/12/21 11:23:17;;;;;;;28.33;18.93;;;13.30;46.70;;;;;;2614419;39;20908;-79
2021/12/21 11:25:48;;;;;;;24.13;16.50;;;12.90;46.40;;;;;;2613200;54;20425;-78
2021/12/21 11:28:17;;;;;;;22.47;16.40;;;13.60;45.00;;;;;;2610536;39;20819;-78
2021/12/21 11:30:43;;;;;;;22.70;17.30;;;14.00;43.30;;;;;;2614577;54;20419;-79
2021/12/21 11:33:11;;;;;;;23.27;15.50;;;14.90;41.60;;;;;;2613080;47;20983;-79
2021/12/21 11:38:07;;;;;;;23.20;16.37;;;15.10;40.80;;;;;;2614541;47;20980;-79
2021/12/21 11:40:37;;;;;;;18.70;15.10;;;14.50;41.90;;;;;;2615012;39;20845;-79
2021/12/21 11:43:11;;;;;;;18.27;15.33;;;14.60;42.40;;;;;;2615206;54;20487;-79
2021/12/21 11:46:01;;;;;;;24.70;16.23;;;15.20;41.20;;;;;;2615716;31;20816;-78
2021/12/21 11:48:37;;;;;;;18.00;15.43;;;15.20;40.30;;;;;;2615950;31;21057;-76
2021/12/21 11:51:09;;;;;;;24.20;17.90;;;15.30;40.50;;;;;;2614707;54;20422;-80
2021/12/21 11:53:36;;;;;;;27.43;18.13;;;14.70;41.10;;;;;;2613797;54;20968;-79
2021/12/21 11:56:03;;;;;;;23.73;17.60;;;14.80;41.50;;;;;;2614776;54;20402;-77
2021/12/21 11:58:33;;;;;;;26.80;20.53;;;15.50;39.70;;;;;;2615394;39;20886;-79
2021/12/21 12:01:05;;;;;;;24.10;18.70;;;15.60;39.70;;;;;;2614443;54;20862;-79
2021/12/21 12:03:36;;;;;;;26.03;16.60;;;14.90;40.00;;;;;;2610935;54;20487;-76
2021/12/21 12:06:14;;;;;;;27.33;19.13;;;14.80;41.20;;;;;;2608495;54;20383;-78
2021/12/21 12:08:44;;;;;;;25.00;19.17;;;14.60;40.90;;;;;;2614341;54;20410;-78
2021/12/21 12:11:26;;;;;;;23.83;17.17;;;14.00;42.00;;;;;;2613782;54;20435;-79
2021/12/21 12:14:05;;;;;;;26.97;19.50;;;13.60;42.70;;;;;;2615170;54;21054;-79
2021/12/21 12:16:49;;;;;;;23.60;18.77;;;13.90;43.60;;;;;;2613363;54;20435;-79
2021/12/21 12:19:18;;;;;;;28.70;20.80;;;14.30;42.40;;;;;;2615857;39;20687;-78
2021/12/21 12:21:54;;;;;;;26.10;18.53;;;14.30;41.50;;;;;;2615094;54;20407;-79
2021/12/21 12:24:22;;;;;;;28.20;19.27;;;14.00;42.60;;;;;;2615158;54;20979;-79
2021/12/21 12:27:00;;;;;;;24.40;17.87;;;12.80;44.40;;;;;;2614209;47;20454;-80
2021/12/21 12:29:26;;;;;;;28.03;19.07;;;13.20;44.30;;;;;;2613855;54;20503;-77
2021/12/21 12:32:03;;;;;;;28.77;20.93;;;13.50;44.80;;;;;;2612984;54;20408;-78
2021/12/21 12:34:32;;;;;;;31.43;21.83;;;12.70;44.10;;;;;;2614210;54;20431;-78
2021/12/21 12:36:59;;;;;;;36.43;20.33;;;12.70;46.20;;;;;;2614225;54;20491;-78
2021/12/21 12:39:43;;;;;;;33.40;21.40;;;13.50;43.60;;;;;;2610174;54;21018;-78
2021/12/21 12:42:21;;;;;;;28.73;20.60;;;13.30;43.80;;;;;;2614694;54;20405;-78
2021/12/21 12:44:50;;;;;;;34.37;21.30;;;13.80;44.50;;;;;;2614147;54;20458;-80
2021/12/21 12:47:17;;;;;;;30.97;20.00;;;13.20;44.20;;;;;;2614327;54;20426;-81
2021/12/21 12:49:52;;;;;;;30.17;19.57;;;13.40;44.20;;;;;;2614071;54;20416;-79
2021/12/21 12:52:27;;;;;;;29.73;19.73;;;14.10;42.80;;;;;;2615068;54;20391;-79
2021/12/21 12:54:56;;;;;;;29.67;20.13;;;14.00;43.40;;;;;;2612642;39;20466;-77
2021/12/21 12:57:36;;;;;;;24.00;18.93;;;13.60;43.20;;;;;;2613008;54;20967;-78
2021/12/21 13:00:24;;;;;;;29.77;18.83;;;14.20;43.20;;;;;;2613573;54;20419;-76
2021/12/21 13:02:56;;;;;;;33.37;20.77;;;14.00;42.20;;;;;;2612567;54;20416;-79
2021/12/21 13:05:26;;;;;;;29.87;20.77;;;14.10;43.60;;;;;;2612852;54;20427;-79
2021/12/21 13:07:52;;;;;;;35.23;22.53;;;13.90;42.80;;;;;;2612330;54;20419;-78
2021/12/21 13:10:22;;;;;;;36.73;22.10;;;12.70;43.40;;;;;;2614265;54;20384;-78
2021/12/21 13:12:56;;;;;;;35.53;24.20;;;13.10;45.20;;;;;;2614484;54;20147;-79
2021/12/21 13:15:39;;;;;;;35.37;23.13;;;12.60;46.10;;;;;;2614762;54;20479;-79
2021/12/21 13:18:07;;;;;;;48.20;26.10;;;12.30;45.90;;;;;;2611410;54;20435;-78
2021/12/21 13:20:35;;;;;;;41.13;26.30;;;12.70;47.20;;;;;;2610696;54;20444;-78
2021/12/21 13:23:12;;;;;;;44.73;25.50;;;11.80;46.80;;;;;;2613151;54;20429;-79
2021/12/21 13:25:38;;;;;;;41.80;26.90;;;12.20;46.80;;;;;;2614160;47;20911;-79
2021/12/21 13:28:11;;;;;;;41.50;26.80;;;11.70;48.00;;;;;;2610218;54;20443;-78
2021/12/21 13:30:44;;;;;;;45.50;28.63;;;11.50;49.40;;;;;;2612004;54;20419;-79
2021/12/21 13:33:10;;;;;;;45.63;27.87;;;11.10;49.30;;;;;;2611688;54;20419;-78
2021/12/21 13:35:42;;;;;;;45.00;27.00;;;10.70;50.60;;;;;;2611976;54;20406;-78
2021/12/21 13:38:14;;;;;;;36.53;25.20;;;10.70;53.10;;;;;;2611808;54;20178;-81
2021/12/21 13:40:40;;;;;;;45.27;26.30;;;10.80;51.40;;;;;;2613753;39;20841;-76
2021/12/21 13:43:13;;;;;;;43.63;24.70;;;11.30;50.50;;;;;;2610608;54;20436;-79
2021/12/21 13:45:41;;;;;;;38.73;23.67;;;10.50;50.80;;;;;;2614810;54;20155;-78